createdAt,value
2019-03-27T00:01:15.400Z,58.70
2019-03-27T00:03:46.734Z,75.50
2019-03-27T00:06:17.901Z,75.78
2019-03-27T00:08:49.019Z,75.42
2019-03-27T00:11:20.159Z,80.17
2019-03-27T00:13:51.539Z,82.02
2019-03-27T00:16:23.007Z,87.70
2019-03-27T00:18:54.190Z,87.50
2019-03-27T00:21:25.451Z,73.95
2019-03-27T00:23:56.590Z,68.52
2019-03-27T00:26:27.787Z,74.37
2019-03-27T00:28:58.891Z,69.77
2019-03-27T00:31:30.174Z,61.95
2019-03-27T00:34:01.337Z,56.42
2019-03-27T00:36:32.902Z,61.08
2019-03-27T00:39:04.878Z,62.95
2019-03-27T00:41:36.018Z,57.23
2019-03-27T00:44:08.382Z,59.05
2019-03-27T00:46:39.524Z,57.53
2019-03-27T00:49:10.633Z,55.30
2019-03-27T00:51:41.772Z,55.80
2019-03-27T00:54:12.903Z,56.68
2019-03-27T00:56:44.079Z,56.25
2019-03-27T00:59:15.197Z,55.95
2019-03-27T01:01:46.542Z,53.65
2019-03-27T01:04:17.778Z,47.95
2019-03-27T01:06:51.080Z,55.17
2019-03-27T01:09:22.639Z,56.53
2019-03-27T01:11:53.913Z,52.83
2019-03-27T01:14:25.032Z,56.50
2019-03-27T01:16:56.166Z,58.90
2019-03-27T01:19:27.535Z,57.62
2019-03-27T01:21:58.546Z,58.13
2019-03-27T01:24:29.741Z,63.73
2019-03-27T01:27:00.820Z,60.40
2019-03-27T01:29:31.981Z,51.80
2019-03-27T01:32:03.014Z,61.23
2019-03-27T01:34:34.090Z,59.75
2019-03-27T01:37:05.198Z,57.33
2019-03-27T01:39:37.471Z,58.23
2019-03-27T01:42:08.540Z,55.17
2019-03-27T01:44:39.867Z,59.35
2019-03-27T01:47:10.929Z,52.13
2019-03-27T01:49:41.977Z,60.58
2019-03-27T01:52:13.194Z,57.27
2019-03-27T01:54:44.230Z,54.80
2019-03-27T01:57:15.228Z,57.50
2019-03-27T01:59:46.436Z,55.90
2019-03-27T02:02:17.450Z,62.98
2019-03-27T02:04:48.533Z,60.20
2019-03-27T02:07:19.604Z,66.07
2019-03-27T02:09:50.710Z,72.27
2019-03-27T02:12:21.781Z,77.30
2019-03-27T02:14:52.840Z,75.12
2019-03-27T02:17:23.973Z,75.52
2019-03-27T02:19:55.161Z,73.45
2019-03-27T02:22:26.307Z,77.82
2019-03-27T02:24:57.420Z,89.65
2019-03-27T02:27:28.528Z,78.25
2019-03-27T02:29:59.697Z,92.60
2019-03-27T02:32:30.930Z,92.37
2019-03-27T02:35:02.112Z,107.55
2019-03-27T02:37:33.203Z,105.30
2019-03-27T02:40:06.360Z,102.60
2019-03-27T02:42:37.380Z,108.67
2019-03-27T02:45:08.712Z,119.30
2019-03-27T02:47:39.780Z,108.80
2019-03-27T02:50:10.929Z,114.67
2019-03-27T02:52:42.199Z,113.92
2019-03-27T02:55:13.381Z,126.97
2019-03-27T02:57:44.759Z,113.95
2019-03-27T03:00:16.200Z,124.70
2019-03-27T03:02:47.370Z,126.85
2019-03-27T03:05:18.582Z,122.10
2019-03-27T03:07:49.780Z,118.53
2019-03-27T03:10:21.093Z,128.23
2019-03-27T03:12:52.324Z,119.60
2019-03-27T03:15:23.802Z,127.40
2019-03-27T03:17:54.970Z,116.03
2019-03-27T03:20:26.157Z,127.20
2019-03-27T03:22:57.536Z,125.27
2019-03-27T03:25:28.573Z,124.78
2019-03-27T03:27:59.718Z,130.50
2019-03-27T03:30:30.939Z,125.65
2019-03-27T03:33:01.948Z,115.57
2019-03-27T03:35:33.146Z,116.88
2019-03-27T03:38:04.151Z,112.20
2019-03-27T03:40:35.350Z,107.03
2019-03-27T03:43:07.018Z,113.72
2019-03-27T03:45:38.423Z,103.50
2019-03-27T03:48:09.603Z,108.95
2019-03-27T03:50:42.324Z,106.55
2019-03-27T03:53:13.989Z,102.67
2019-03-27T03:55:45.379Z,90.38
2019-03-27T03:58:16.923Z,92.37
2019-03-27T04:00:48.144Z,98.50
2019-03-27T04:03:19.188Z,93.37
2019-03-27T04:05:50.415Z,93.27
2019-03-27T04:08:21.853Z,77.58
2019-03-27T04:10:53.961Z,72.27
2019-03-27T04:13:25.020Z,57.30
2019-03-27T04:15:56.140Z,73.75
2019-03-27T04:18:27.268Z,48.65
2019-03-27T04:20:58.306Z,53.90
2019-03-27T04:23:29.426Z,49.80
2019-03-27T04:26:09.542Z,46.50
2019-03-27T04:28:33.526Z,50.58
2019-03-27T04:31:04.901Z,61.60
2019-03-27T04:33:36.044Z,69.12
2019-03-27T04:36:07.136Z,65.17
2019-03-27T04:38:38.377Z,70.87
2019-03-27T04:41:09.519Z,72.15
2019-03-27T04:43:40.795Z,70.50
2019-03-27T04:46:11.978Z,81.95
2019-03-27T04:48:43.295Z,73.70
2019-03-27T04:51:14.383Z,75.30
2019-03-27T04:53:45.410Z,71.47
2019-03-27T04:56:16.611Z,78.90
2019-03-27T04:58:47.658Z,82.85
2019-03-27T05:01:18.701Z,78.40
2019-03-27T05:03:49.999Z,83.07
2019-03-27T05:06:21.115Z,94.67
2019-03-27T05:08:52.392Z,85.67
2019-03-27T05:11:25.018Z,94.20
2019-03-27T05:13:56.419Z,83.35
2019-03-27T05:16:27.686Z,86.17
2019-03-27T05:18:58.808Z,95.00
2019-03-27T05:21:29.955Z,100.67
2019-03-27T05:24:01.082Z,94.03
2019-03-27T05:26:32.413Z,109.17
2019-03-27T05:29:04.057Z,128.38
2019-03-27T05:31:36.012Z,142.65
2019-03-27T05:34:08.428Z,134.15
2019-03-27T05:36:39.571Z,134.87
2019-03-27T05:39:10.645Z,122.28
2019-03-27T05:41:41.754Z,113.50
2019-03-27T05:44:12.924Z,103.55
2019-03-27T05:46:44.159Z,98.75
2019-03-27T05:49:15.267Z,97.65
2019-03-27T05:51:46.539Z,84.32
2019-03-27T05:54:22.067Z,92.55
2019-03-27T05:57:05.632Z,92.70
2019-03-27T05:59:36.791Z,99.83
2019-03-27T06:02:07.949Z,88.65
2019-03-27T06:04:38.968Z,79.80
2019-03-27T06:07:10.709Z,67.87
2019-03-27T06:09:42.298Z,62.48
2019-03-27T06:12:13.669Z,63.87
2019-03-27T06:14:45.020Z,63.50
2019-03-27T06:17:16.184Z,58.17
2019-03-27T06:19:47.364Z,53.05
2019-03-27T06:22:19.806Z,49.13
2019-03-27T06:24:50.921Z,46.85
2019-03-27T06:27:23.289Z,44.80
2019-03-27T06:29:54.573Z,47.43
2019-03-27T06:32:25.922Z,53.33
2019-03-27T06:34:57.060Z,40.75
2019-03-27T06:37:28.289Z,36.53
2019-03-27T06:39:59.432Z,27.75
2019-03-27T06:42:30.671Z,18.85
2019-03-27T06:45:02.163Z,17.98
2019-03-27T06:47:33.375Z,25.48
2019-03-27T06:50:06.133Z,24.18
2019-03-27T06:52:37.373Z,38.85
2019-03-27T06:55:08.435Z,29.37
2019-03-27T06:57:40.659Z,31.68
2019-03-27T07:00:12.029Z,41.55
2019-03-27T07:02:44.404Z,33.42
2019-03-27T07:05:15.654Z,29.80
2019-03-27T07:07:46.934Z,39.38
2019-03-27T07:10:18.243Z,36.83
2019-03-27T07:12:51.245Z,19.73
2019-03-27T07:15:22.332Z,13.53
2019-03-27T07:17:53.617Z,14.33
2019-03-27T07:20:24.727Z,13.83
2019-03-27T07:22:55.659Z,14.65
2019-03-27T07:25:26.964Z,13.18
2019-03-27T07:27:58.511Z,15.15
2019-03-27T07:30:29.676Z,11.33
2019-03-27T07:33:00.877Z,11.78
2019-03-27T07:35:31.916Z,8.90
2019-03-27T07:38:03.033Z,11.93
2019-03-27T07:40:34.135Z,9.70
2019-03-27T07:43:05.389Z,12.85
2019-03-27T07:45:36.588Z,15.98
2019-03-27T07:48:07.685Z,10.20
2019-03-27T07:50:38.912Z,13.58
2019-03-27T07:53:09.951Z,9.45
2019-03-27T07:55:41.090Z,12.23
2019-03-27T07:58:12.630Z,8.03
2019-03-27T08:00:44.024Z,16.00
2019-03-27T08:03:28.938Z,12.78
2019-03-27T08:06:05.734Z,13.93
2019-03-27T08:08:37.146Z,8.25
2019-03-27T08:11:09.927Z,7.05
2019-03-27T08:13:40.990Z,9.25
2019-03-27T08:16:11.994Z,12.20
2019-03-27T08:18:43.060Z,9.85
2019-03-27T08:21:14.348Z,14.18
2019-03-27T08:23:45.607Z,8.68
2019-03-27T08:26:16.980Z,10.78
2019-03-27T08:28:48.487Z,17.10
2019-03-27T08:31:20.082Z,11.03
2019-03-27T08:33:51.266Z,21.05
2019-03-27T08:36:22.459Z,13.25
2019-03-27T08:38:53.770Z,17.20
2019-03-27T08:41:25.119Z,17.27
2019-03-27T08:43:57.905Z,12.13
2019-03-27T08:46:31.719Z,8.03
2019-03-27T08:49:03.395Z,8.07
2019-03-27T08:51:34.631Z,10.85
2019-03-27T08:54:06.252Z,8.25
2019-03-27T08:56:37.895Z,11.33
2019-03-27T08:59:09.576Z,8.63
2019-03-27T09:01:40.719Z,13.45
2019-03-27T09:04:12.043Z,12.50
2019-03-27T09:06:43.161Z,13.68
2019-03-27T09:09:14.233Z,15.72
2019-03-27T09:11:45.232Z,11.60
2019-03-27T09:14:16.353Z,16.05
2019-03-27T09:16:47.456Z,7.97
2019-03-27T09:19:18.531Z,9.70
2019-03-27T09:21:49.659Z,14.78
2019-03-27T09:24:21.001Z,10.78
2019-03-27T09:26:55.341Z,8.88
2019-03-27T09:29:26.439Z,8.05
2019-03-27T09:31:57.523Z,8.03
2019-03-27T09:34:28.854Z,10.90
2019-03-27T09:36:59.904Z,11.63
2019-03-27T09:39:31.159Z,11.78
2019-03-27T09:42:04.161Z,12.60
2019-03-27T09:44:36.257Z,9.45
2019-03-27T09:47:07.648Z,13.38
2019-03-27T09:49:49.604Z,12.28
2019-03-27T09:52:11.956Z,11.30
2019-03-27T09:54:43.285Z,14.13
2019-03-27T09:57:14.575Z,23.15
2019-03-27T09:59:47.107Z,13.75
2019-03-27T10:02:18.088Z,10.55
2019-03-27T10:04:49.132Z,14.25
2019-03-27T10:07:20.089Z,12.82
2019-03-27T10:09:51.115Z,14.55
2019-03-27T10:12:22.219Z,15.60
2019-03-27T10:14:53.163Z,11.93
2019-03-27T10:17:24.257Z,13.10
2019-03-27T10:20:03.347Z,12.50
2019-03-27T10:22:28.312Z,15.58
2019-03-27T10:24:59.383Z,13.65
2019-03-27T10:27:30.293Z,15.83
2019-03-27T10:30:01.274Z,21.48
2019-03-27T10:32:32.679Z,15.30
2019-03-27T10:35:04.189Z,13.55
2019-03-27T10:37:35.161Z,11.05
2019-03-27T10:40:07.854Z,15.40
2019-03-27T10:42:38.858Z,17.20
2019-03-27T10:45:10.975Z,17.75
2019-03-27T10:47:42.092Z,15.85
2019-03-27T10:50:17.802Z,14.87
2019-03-27T10:52:46.394Z,15.68
2019-03-27T10:55:18.648Z,19.35
2019-03-27T10:57:49.653Z,16.67
2019-03-27T11:00:20.768Z,15.98
2019-03-27T11:02:52.139Z,20.45
2019-03-27T11:05:26.485Z,10.82
2019-03-27T11:07:59.468Z,14.28
2019-03-27T11:10:30.700Z,17.65
2019-03-27T11:13:01.716Z,15.25
2019-03-27T11:15:32.751Z,14.55
2019-03-27T11:18:03.655Z,17.10
2019-03-27T11:20:34.968Z,13.95
2019-03-27T11:23:05.976Z,13.75
2019-03-27T11:25:36.919Z,16.35
2019-03-27T11:28:08.290Z,14.85
2019-03-27T11:30:39.470Z,19.15
2019-03-27T11:33:10.712Z,13.65
2019-03-27T11:35:41.831Z,14.58
2019-03-27T11:38:12.878Z,16.62
2019-03-27T11:40:44.452Z,17.27
2019-03-27T11:43:15.441Z,22.70
2019-03-27T11:45:48.736Z,22.45
2019-03-27T11:48:19.533Z,15.20
2019-03-27T11:50:50.802Z,17.17
2019-03-27T11:53:21.880Z,17.20
2019-03-27T11:55:53.062Z,14.98
2019-03-27T11:58:24.397Z,17.67
2019-03-27T12:00:55.684Z,15.03
2019-03-27T12:03:26.637Z,17.62
2019-03-27T12:05:57.599Z,19.65
2019-03-27T12:08:28.655Z,18.62
2019-03-27T12:10:59.770Z,27.52
2019-03-27T12:13:30.824Z,20.25
2019-03-27T12:16:01.982Z,30.55
2019-03-27T12:18:33.310Z,23.73
2019-03-27T12:21:04.472Z,35.63
2019-03-27T12:23:35.468Z,26.37
2019-03-27T12:26:06.653Z,31.10
2019-03-27T12:28:37.921Z,23.42
2019-03-27T12:31:09.136Z,29.67
2019-03-27T12:33:40.183Z,30.55
2019-03-27T12:36:11.322Z,26.82
2019-03-27T12:38:42.420Z,20.97
2019-03-27T12:41:13.727Z,115.72
2019-03-27T12:43:44.886Z,39.08
2019-03-27T12:46:16.174Z,38.00
2019-03-27T12:48:47.285Z,37.08
2019-03-27T12:51:18.573Z,34.67
2019-03-27T12:53:49.879Z,35.00
2019-03-27T12:56:21.054Z,31.52
2019-03-27T12:58:52.144Z,31.95
2019-03-27T13:01:23.396Z,32.08
2019-03-27T13:03:54.679Z,35.38
2019-03-27T13:06:26.007Z,34.45
2019-03-27T13:08:57.210Z,32.53
2019-03-27T13:11:28.394Z,32.67
2019-03-27T13:13:59.467Z,32.25
2019-03-27T13:16:30.589Z,31.42
2019-03-27T13:19:01.665Z,28.47
2019-03-27T13:21:32.909Z,22.45
2019-03-27T13:24:03.970Z,28.42
2019-03-27T13:26:36.633Z,33.67
2019-03-27T13:29:07.775Z,24.45
2019-03-27T13:31:39.909Z,28.38
2019-03-27T13:34:11.101Z,26.17
2019-03-27T13:36:44.010Z,29.80
2019-03-27T13:39:15.003Z,29.72
2019-03-27T13:41:46.110Z,27.58
2019-03-27T13:44:17.205Z,40.58
2019-03-27T13:46:48.532Z,31.52
2019-03-27T13:49:19.606Z,30.80
2019-03-27T13:51:51.702Z,29.10
2019-03-27T13:54:22.820Z,30.45
2019-03-27T13:56:54.126Z,30.23
2019-03-27T13:59:25.093Z,29.15
2019-03-27T14:01:56.469Z,34.18
2019-03-27T14:04:27.643Z,27.02
2019-03-27T14:06:58.800Z,28.62
2019-03-27T14:09:32.189Z,26.82
2019-03-27T14:12:03.343Z,27.62
2019-03-27T14:14:34.554Z,28.15
2019-03-27T14:17:05.710Z,36.03
2019-03-27T14:19:36.837Z,25.43
2019-03-27T14:22:07.970Z,27.55
2019-03-27T14:24:39.148Z,34.58
2019-03-27T14:27:10.329Z,38.20
2019-03-27T14:29:41.431Z,33.40
2019-03-27T14:32:12.679Z,33.35
2019-03-27T14:34:44.329Z,36.13
2019-03-27T14:37:15.538Z,36.93
2019-03-27T14:39:46.914Z,39.48
2019-03-27T14:42:18.058Z,38.17
2019-03-27T14:44:49.274Z,46.00
2019-03-27T14:47:20.502Z,45.70
2019-03-27T14:49:51.660Z,39.50
2019-03-27T14:52:23.044Z,37.15
2019-03-27T14:54:54.175Z,38.50
2019-03-27T14:57:25.508Z,45.85
2019-03-27T14:59:56.600Z,42.75
2019-03-27T15:02:27.926Z,45.90
2019-03-27T15:04:59.098Z,60.17
2019-03-27T15:07:30.369Z,76.35
2019-03-27T15:10:01.565Z,75.85
2019-03-27T15:12:34.726Z,77.15
2019-03-27T15:15:08.202Z,86.05
2019-03-27T15:17:40.527Z,79.07
2019-03-27T15:20:11.676Z,84.65
2019-03-27T15:22:42.898Z,82.97
2019-03-27T15:25:14.437Z,91.05
2019-03-27T15:27:46.950Z,133.50
2019-03-27T15:30:19.803Z,144.72
2019-03-27T15:32:50.999Z,160.18
2019-03-27T15:35:22.256Z,173.38
2019-03-27T15:37:53.539Z,158.87
2019-03-27T15:40:40.740Z,151.70
2019-03-27T15:43:12.093Z,164.18
2019-03-27T15:45:43.251Z,166.75
2019-03-27T15:48:16.224Z,158.68
2019-03-27T15:50:56.833Z,148.78
2019-03-27T15:53:20.879Z,138.43
2019-03-27T15:55:52.199Z,119.60
2019-03-27T15:58:23.438Z,124.75
2019-03-27T16:00:54.793Z,128.05
2019-03-27T16:03:26.046Z,108.25
2019-03-27T16:05:57.685Z,105.43
2019-03-27T16:08:29.043Z,94.20
2019-03-27T16:11:00.250Z,87.15
2019-03-27T16:13:32.574Z,105.07
2019-03-27T16:16:04.036Z,89.60
2019-03-27T16:18:36.758Z,95.12
2019-03-27T16:21:08.076Z,68.45
2019-03-27T16:23:43.903Z,70.60
2019-03-27T16:26:15.840Z,68.12
2019-03-27T16:28:48.227Z,48.52
2019-03-27T16:31:19.430Z,50.40
2019-03-27T16:33:55.157Z,49.48
2019-03-27T16:36:42.610Z,40.25
2019-03-27T16:39:13.801Z,34.98
2019-03-27T16:41:45.025Z,45.35
2019-03-27T16:44:16.474Z,48.98
2019-03-27T16:46:47.732Z,73.22
2019-03-27T16:49:18.991Z,72.22
2019-03-27T16:51:50.685Z,76.80
2019-03-27T16:54:22.161Z,86.25
2019-03-27T16:56:54.949Z,57.30
2019-03-27T16:59:26.187Z,54.05
2019-03-27T17:01:57.404Z,41.45
2019-03-27T17:04:28.813Z,45.17
2019-03-27T17:07:01.736Z,26.50
2019-03-27T17:09:33.015Z,25.65
2019-03-27T17:12:04.318Z,29.72
2019-03-27T17:14:35.593Z,28.25
2019-03-27T17:17:06.890Z,25.15
2019-03-27T17:19:38.175Z,29.07
2019-03-27T17:22:19.412Z,29.35
2019-03-27T17:24:42.501Z,50.45
2019-03-27T17:27:13.961Z,56.60
2019-03-27T17:29:45.273Z,59.98
2019-03-27T17:32:16.586Z,48.80
2019-03-27T17:34:47.812Z,50.65
2019-03-27T17:37:19.035Z,62.00
2019-03-27T17:39:50.281Z,86.40
2019-03-27T17:42:21.416Z,90.03
2019-03-27T17:45:00.687Z,70.28
2019-03-27T17:51:12.117Z,73.75
2019-03-27T17:53:45.346Z,70.28
2019-03-27T17:56:16.726Z,65.08
2019-03-27T17:58:47.906Z,34.38
2019-03-27T18:01:19.192Z,32.40
2019-03-27T18:03:50.352Z,45.65
2019-03-27T18:06:21.626Z,34.50
2019-03-27T18:08:54.298Z,27.85
2019-03-27T18:11:25.613Z,32.20
2019-03-27T18:13:58.796Z,32.58
2019-03-27T18:16:29.964Z,26.70
2019-03-27T18:19:01.138Z,32.17
2019-03-27T18:21:33.961Z,34.83
2019-03-27T18:24:05.064Z,39.08
2019-03-27T18:26:36.371Z,46.35
2019-03-27T18:29:07.588Z,44.03
2019-03-27T18:31:38.702Z,56.50
2019-03-27T18:34:09.910Z,76.20
2019-03-27T18:36:41.015Z,79.80
2019-03-27T18:39:13.014Z,92.50
2019-03-27T18:41:51.229Z,129.78
2019-03-27T18:44:45.722Z,149.82
2019-03-27T18:47:20.087Z,152.35
2019-03-27T18:49:53.566Z,156.18
2019-03-27T18:52:27.076Z,179.53
2019-03-27T18:54:58.424Z,171.75
2019-03-27T18:57:31.613Z,167.90
2019-03-27T19:00:26.252Z,166.40
2019-03-27T19:03:20.552Z,163.52
2019-03-27T19:05:51.864Z,157.70
2019-03-27T19:08:23.094Z,172.10
2019-03-27T19:10:54.447Z,168.45
2019-03-27T19:13:28.058Z,143.68
2019-03-27T19:15:59.274Z,133.37
2019-03-27T19:18:31.459Z,114.85
2019-03-27T19:21:02.698Z,113.15
2019-03-27T19:23:33.851Z,117.00
2019-03-27T19:26:05.558Z,109.00
2019-03-27T19:28:36.849Z,88.15
2019-03-27T19:31:07.903Z,63.35
2019-03-27T19:33:41.442Z,50.60
2019-03-27T19:36:12.480Z,43.75
2019-03-27T19:38:43.626Z,44.73
2019-03-27T19:41:17.624Z,42.33
2019-03-27T19:43:52.610Z,42.30
2019-03-27T19:46:23.883Z,43.38
2019-03-27T19:48:55.231Z,44.40
2019-03-27T19:51:30.896Z,47.50
2019-03-27T19:54:03.994Z,51.48
2019-03-27T19:56:35.443Z,58.85
2019-03-27T19:59:06.563Z,57.60
2019-03-27T20:01:39.388Z,57.23
2019-03-27T20:04:10.509Z,57.23
2019-03-27T20:06:41.727Z,58.08
2019-03-27T20:09:12.952Z,60.03
2019-03-27T20:11:44.303Z,59.00
2019-03-27T20:14:15.672Z,56.42
2019-03-27T20:16:52.295Z,63.52
2019-03-27T20:19:25.440Z,65.05
2019-03-27T20:21:57.236Z,61.48
2019-03-27T20:24:40.516Z,64.97
2019-03-27T20:27:18.051Z,65.72
2019-03-27T20:29:50.753Z,69.77
2019-03-27T20:32:22.308Z,68.17
2019-03-27T20:34:53.576Z,72.92
2019-03-27T20:37:24.823Z,68.55
2019-03-27T20:39:57.609Z,67.65
2019-03-27T20:42:28.764Z,60.92
2019-03-27T20:45:02.653Z,58.73
2019-03-27T20:47:36.623Z,59.63
2019-03-27T20:50:13.742Z,54.83
2019-03-27T20:52:47.994Z,63.00
2019-03-27T20:55:30.119Z,52.78
2019-03-27T20:57:54.676Z,63.17
2019-03-27T21:00:26.064Z,64.95
2019-03-27T21:02:58.179Z,67.20
2019-03-27T21:05:29.529Z,76.05
2019-03-27T21:08:00.836Z,74.03
2019-03-27T21:10:34.845Z,78.07
2019-03-27T21:13:10.152Z,62.13
2019-03-27T21:15:41.304Z,62.58
2019-03-27T21:18:15.456Z,61.77
2019-03-27T21:20:49.976Z,63.68
2019-03-27T21:23:22.687Z,64.35
2019-03-27T21:25:53.924Z,56.25
2019-03-27T21:28:26.094Z,51.95
2019-03-27T21:30:57.210Z,47.58
2019-03-27T21:33:30.008Z,49.00
2019-03-27T21:36:01.537Z,45.25
2019-03-27T21:38:34.044Z,40.65
2019-03-27T21:41:05.134Z,42.03
2019-03-27T21:43:36.383Z,35.30
2019-03-27T21:46:07.492Z,36.90
2019-03-27T21:48:38.755Z,35.23
2019-03-27T21:51:10.384Z,34.08
2019-03-27T21:53:42.294Z,34.90
2019-03-27T21:56:13.649Z,35.13
2019-03-27T21:58:44.884Z,33.15
2019-03-27T22:01:16.085Z,34.55
2019-03-27T22:03:47.163Z,32.95
2019-03-27T22:06:18.359Z,36.20
2019-03-27T22:08:49.635Z,38.10
2019-03-27T22:11:21.007Z,41.02
2019-03-27T22:13:52.398Z,38.17
2019-03-27T22:16:23.638Z,37.78
2019-03-27T22:18:54.701Z,37.63
2019-03-27T22:21:27.027Z,41.65
2019-03-27T22:23:58.114Z,42.65
2019-03-27T22:26:33.858Z,45.88
2019-03-27T22:29:05.298Z,43.78
2019-03-27T22:31:36.666Z,46.48
2019-03-27T22:34:07.907Z,46.68
2019-03-27T22:36:39.302Z,48.17
2019-03-27T22:39:10.522Z,49.03
2019-03-27T22:41:41.738Z,52.55
2019-03-27T22:44:12.877Z,52.05
2019-03-27T22:46:45.214Z,55.80
2019-03-27T22:49:19.171Z,63.73
2019-03-27T22:51:50.414Z,70.00
2019-03-27T22:54:21.515Z,63.42
2019-03-27T22:56:52.996Z,65.37
2019-03-27T22:59:23.969Z,65.52
2019-03-27T23:01:55.120Z,63.55
2019-03-27T23:04:26.255Z,68.78
2019-03-27T23:06:57.407Z,71.30
2019-03-27T23:09:28.521Z,72.25
2019-03-27T23:11:59.797Z,69.53
2019-03-27T23:14:31.080Z,78.25
2019-03-27T23:17:02.229Z,84.87
2019-03-27T23:19:33.367Z,82.40
2019-03-27T23:22:04.516Z,76.07
2019-03-27T23:24:35.612Z,82.10
2019-03-27T23:27:06.764Z,75.92
2019-03-27T23:29:39.124Z,76.60
2019-03-27T23:32:10.224Z,73.02
2019-03-27T23:34:41.419Z,56.68
2019-03-27T23:37:12.590Z,63.30
2019-03-27T23:39:43.899Z,65.87
2019-03-27T23:42:16.270Z,68.83
2019-03-27T23:44:47.632Z,85.75
2019-03-27T23:47:18.752Z,81.32
2019-03-27T23:49:49.987Z,77.32
2019-03-27T23:52:21.038Z,87.15
2019-03-27T23:54:52.222Z,88.22
2019-03-27T23:57:24.167Z,91.12
2019-03-27T23:59:55.381Z,89.03
